sensor_id;sensor_type;location;lat;lon;timestamp;pressure;altitude;pressure_sealevel;temperature;humidity
15558;BME280;7880;50.110;9.372;2023-05-23T00:02:39;15.207074717059731;;;14.937;100.0
15558;BME280;7880;50.110;9.372;2023-05-23T00:07:43;15.131436163611943;;;14.875;100.0
15558;BME280;7880;50.110;9.372;2023-05-23T00:12:52;15.20203214479261;;;14.875;100.0
15558;BME280;7880;50.110;9.372;2023-05-23T00:17:56;15.060840239474782;;;14.75;100.0
15558;BME280;7880;50.110;9.372;2023-05-23T00:23:20;14.980159253167221;;;14.687;100.0
15558;BME280;7880;50.110;9.372;2023-05-23T00:28:07;14.879308125056559;;;14.687;100.0
15558;BME280;7880;50.110;9.372;2023-05-23T00:33:13;14.919648562330986;;;14.625;100.0
15558;BME280;7880;50.110;9.372;2023-05-23T00:38:24;14.707861474441597;;;14.375;100.0
15558;BME280;7880;50.110;9.372;2023-05-23T00:43:31;14.793584757694044;;;14.562;100.0
15558;BME280;7880;50.110;9.372;2023-05-23T00:48:28;14.712904018186965;;;14.437;100.0
15558;BME280;7880;50.110;9.372;2023-05-23T00:53:34;14.637265892565484;;;14.437;100.0
15558;BME280;7880;50.110;9.372;2023-05-23T00:58:42;14.788542209292064;;;14.437;100.0
15558;BME280;7880;50.110;9.372;2023-05-23T01:03:45;14.51624502777704;;;14.187;100.0
15558;BME280;7880;50.110;9.372;2023-05-23T01:08:50;14.738116741279374;;;14.375;100.0
15558;BME280;7880;50.110;9.372;2023-05-23T01:13:58;14.637265892565484;;;14.375;100.0
15558;BME280;7880;50.110;9.372;2023-05-23T01:19:47;14.546500228258083;;;14.312;100.0
15558;BME280;7880;50.110;9.372;2023-05-23T01:24:40;14.63222335318569;;;14.375;100.0
15558;BME280;7880;50.110;9.372;2023-05-23T01:30:18;14.178396000806242;;;14.062;100.0
15558;BME280;7880;50.110;9.372;2023-05-23T01:35:26;14.299416397605091;;;14.062;100.0
15558;BME280;7880;50.110;9.372;2023-05-23T01:40:28;14.299416397605091;;;14.062;100.0
15558;BME280;7880;50.110;9.372;2023-05-23T01:45:31;14.380096755269914;;;14.062;100.0
15558;BME280;7880;50.110;9.372;2023-05-23T01:50:37;14.551542762690223;;;14.25;100.0
15558;BME280;7880;50.110;9.372;2023-05-23T01:55:41;14.375054230733076;;;14.125;100.0
15558;BME280;7880;50.110;9.372;2023-05-23T02:00:53;14.425479489198187;;;14.187;100.0
15558;BME280;7880;50.110;9.372;2023-05-23T02:05:49;14.54145769411698;;;14.312;100.0
15558;BME280;7880;50.110;9.372;2023-05-23T02:10:54;14.289331358135678;;;14.125;100.0
15558;BME280;7880;50.110;9.372;2023-05-23T02:16:00;14.153183439240092;;;13.875;100.0
15558;BME280;7880;50.110;9.372;2023-05-23T02:21:05;14.32967152299825;;;14.0;100.0
15558;BME280;7880;50.110;9.372;2023-05-23T02:26:13;14.410351908602753;;;14.125;100.0
15558;BME280;7880;50.110;9.372;2023-05-23T02:31:16;14.460777187440545;;;14.187;100.0
15558;BME280;7880;50.110;9.372;2023-05-23T02:36:21;14.133013395225863;;;14.062;100.0
15558;BME280;7880;50.110;9.372;2023-05-23T02:41:27;14.077545798197388;;;13.937;100.0
15558;BME280;7880;50.110;9.372;2023-05-23T02:46:32;14.506159963278332;;;14.25;100.0
15558;BME280;7880;50.110;9.372;2023-05-23T02:51:38;14.647350972198183;;;14.437;100.0
15558;BME280;7880;50.110;9.372;2023-05-23T02:56:43;14.71794656222337;;;14.5;100.0
15558;BME280;7880;50.110;9.372;2023-05-23T03:01:49;14.657436052995035;;;14.562;100.0
15558;BME280;7880;50.110;9.372;2023-05-23T03:06:54;14.465819716925035;;;14.375;100.0
15558;BME280;7880;50.110;9.372;2023-05-23T03:12:03;14.526330093439901;;;14.437;100.0
15558;BME280;7880;50.110;9.372;2023-05-23T03:17:14;14.506159963278332;;;14.437;100.0
15558;BME280;7880;50.110;9.372;2023-05-23T03:22:13;14.496074899943778;;;14.437;100.0
15558;BME280;7880;50.110;9.372;2023-05-23T03:27:18;14.420436962042004;;;14.375;100.0
15558;BME280;7880;50.110;9.372;2023-05-23T03:32:24;14.334714044915746;;;14.25;100.0
15558;BME280;7880;50.110;9.372;2023-05-23T03:37:30;14.324629001371795;;;14.25;100.0
15558;BME280;7880;50.110;9.372;2023-05-23T03:42:40;14.465819716925035;;;14.375;100.0
15558;BME280;7880;50.110;9.372;2023-05-23T03:47:40;14.546500228258083;;;14.437;100.0
15558;BME280;7880;50.110;9.372;2023-05-23T03:52:45;14.496074899943778;;;14.437;100.0
15558;BME280;7880;50.110;9.372;2023-05-23T03:57:50;14.465819716925035;;;14.437;100.0
15558;BME280;7880;50.110;9.372;2023-05-23T04:02:54;14.455734658247092;;;14.375;100.0
15558;BME280;7880;50.110;9.372;2023-05-23T04:08:00;14.445649600733304;;;14.375;100.0
15558;BME280;7880;50.110;9.372;2023-05-23T04:13:06;14.32967152299825;;;14.312;100.0
15558;BME280;7880;50.110;9.372;2023-05-23T04:18:11;14.233863661863143;;;14.187;100.0
15558;BME280;7880;50.110;9.372;2023-05-23T04:23:14;14.153183439240092;;;14.125;100.0
15558;BME280;7880;50.110;9.372;2023-05-23T04:28:18;14.183438513992588;;;14.062;100.0
15558;BME280;7880;50.110;9.372;2023-05-23T04:33:28;14.067460784339346;;;14.0;100.0
15558;BME280;7880;50.110;9.372;2023-05-23T04:38:27;14.04224825478741;;;14.0;100.0
15558;BME280;7880;50.110;9.372;2023-05-23T04:43:43;13.931313211197267;;;13.937;100.0
15558;BME280;7880;50.110;9.372;2023-05-23T04:48:38;13.865760751650669;;;13.812;100.0
15558;BME280;7880;50.110;9.372;2023-05-23T04:53:43;13.845590773993171;;;13.812;100.0
15558;BME280;7880;50.110;9.372;2023-05-23T04:58:48;13.74978344371193;;;13.687;100.0
15558;BME280;7880;50.110;9.372;2023-05-23T05:03:52;13.623721327097154;;;13.625;100.0
15558;BME280;7880;50.110;9.372;2023-05-23T05:08:59;13.669103668123716;;;13.625;100.0
15558;BME280;7880;50.110;9.372;2023-05-23T05:14:04;13.623721327097154;;;13.562;100.0
15558;BME280;7880;50.110;9.372;2023-05-23T05:19:06;13.593466446176171;;;13.562;100.0
15558;BME280;7880;50.110;9.372;2023-05-23T05:24:13;13.558169098343933;;;13.5;100.0
15558;BME280;7880;50.110;9.372;2023-05-23T05:29:14;13.53295671576634;;;13.5;100.0
15558;BME280;7880;50.110;9.372;2023-05-23T05:34:18;13.623721327097154;;;13.562;100.0
15558;BME280;7880;50.110;9.372;2023-05-23T05:39:26;13.517829289712244;;;13.5;100.0
15558;BME280;7880;50.110;9.372;2023-05-23T05:44:30;13.487574445462087;;;13.5;100.0
15558;BME280;7880;50.110;9.372;2023-05-23T05:49:31;13.53295671576634;;;13.5;100.0
15558;BME280;7880;50.110;9.372;2023-05-23T05:54:35;13.472447027266025;;;13.437;100.0
15558;BME280;7880;50.110;9.372;2023-05-23T05:59:39;13.467404555116081;;;13.437;100.0
15558;BME280;7880;50.110;9.372;2023-05-23T06:04:44;13.492616918776184;;;13.437;100.0
15558;BME280;7880;50.110;9.372;2023-05-23T06:09:50;13.568254053412238;;;13.5;100.0
15558;BME280;7880;50.110;9.372;2023-05-23T06:14:53;13.437149728328222;;;13.375;100.0
15558;BME280;7880;50.110;9.372;2023-05-23T06:19:57;13.482531972439029;;;13.375;100.0
15558;BME280;7880;50.110;9.372;2023-05-23T06:23:32;13.482531972439029;;;13.437;100.0
15558;BME280;7880;50.110;9.372;2023-05-23T06:28:47;13.477489499707008;;;13.437;100.0
15558;BME280;7880;50.110;9.372;2023-05-23T06:33:42;13.477489499707008;;;13.437;100.0
15558;BME280;7880;50.110;9.372;2023-05-23T06:38:48;13.537999191699782;;;13.5;100.0
15558;BME280;7880;50.110;9.372;2023-05-23T06:43:48;13.401852443651297;;;13.375;100.0
15558;BME280;7880;50.110;9.372;2023-05-23T06:48:52;13.45227714041248;;;13.437;100.0
15558;BME280;7880;50.110;9.372;2023-05-23T06:53:57;13.497659392381319;;;13.437;100.0
15558;BME280;7880;50.110;9.372;2023-05-23T06:59:02;13.573296531382947;;;13.5;100.0
15558;BME280;7880;50.110;9.372;2023-05-23T07:04:07;13.608593885326991;;;13.562;100.0
15558;BME280;7880;50.110;9.372;2023-05-23T07:09:14;13.669103668123716;;;13.625;100.0
15558;BME280;7880;50.110;9.372;2023-05-23T07:14:15;13.623721327097154;;;13.562;100.0
15558;BME280;7880;50.110;9.372;2023-05-23T07:19:20;13.593466446176171;;;13.562;100.0
15558;BME280;7880;50.110;9.372;2023-05-23T07:24:30;13.669103668123716;;;13.625;100.0
15558;BME280;7880;50.110;9.372;2023-05-23T07:29:30;13.769953399250516;;;13.75;100.0
15558;BME280;7880;50.110;9.372;2023-05-23T07:34:34;13.921228214219445;;;13.812;100.0
15558;BME280;7880;50.110;9.372;2023-05-23T07:39:40;13.961568209115649;;;13.937;100.0
15558;BME280;7880;50.110;9.372;2023-05-23T07:44:53;14.385139280097793;;;14.125;100.0
15558;BME280;7880;50.110;9.372;2023-05-23T07:49:51;14.576755439216504;;;14.5;100.0
15558;BME280;7880;50.110;9.372;2023-05-23T07:54:51;14.485989837773378;;;14.437;100.0
15558;BME280;7880;50.110;9.372;2023-05-23T07:59:59;14.66247859383002;;;14.687;100.0
15558;BME280;7880;50.110;9.372;2023-05-23T08:05:01;14.965031576529146;;;14.937;100.0
15558;BME280;7880;50.110;9.372;2023-05-23T08:10:07;15.408777846395969;;;15.312;100.0
15558;BME280;7880;50.110;9.372;2023-05-23T08:15:11;15.086053062975406;;;15.0;100.0
15558;BME280;7880;50.110;9.372;2023-05-23T08:20:15;15.23228758276091;;;15.125;100.0
15558;BME280;7880;50.110;9.372;2023-05-23T08:25:20;15.060840239474782;;;14.937;100.0
15558;BME280;7880;50.110;9.372;2023-05-23T08:30:25;14.939818787953119;;;14.875;100.0
15558;BME280;7880;50.110;9.372;2023-05-23T08:35:28;14.672563676373102;;;14.625;100.0
15558;BME280;7880;50.110;9.372;2023-05-23T08:40:33;14.778457113361219;;;14.687;100.0
15558;BME280;7880;50.110;9.372;2023-05-23T08:45:39;14.526330093439901;;;14.5;100.0
15558;BME280;7880;50.110;9.372;2023-05-23T08:50:57;14.642308432236314;;;14.625;100.0
15558;BME280;7880;50.110;9.372;2023-05-23T08:55:46;14.511202495382168;;;14.5;100.0
15558;BME280;7880;50.110;9.372;2023-05-23T09:00:51;14.773414565832354;;;14.625;100.0
15558;BME280;7880;50.110;9.372;2023-05-23T09:05:55;14.702818930987268;;;14.562;100.0
15558;BME280;7880;50.110;9.372;2023-05-23T09:11:02;14.702818930987268;;;14.625;100.0
15558;BME280;7880;50.110;9.372;2023-05-23T09:16:08;14.879308125056559;;;14.812;100.0
15558;BME280;7880;50.110;9.372;2023-05-23T09:21:07;14.929733674559975;;;14.812;100.0
15558;BME280;7880;50.110;9.372;2023-05-23T09:26:12;14.748201832553605;;;14.687;100.0
15558;BME280;7880;50.110;9.372;2023-05-23T09:31:15;15.025542298797518;;;14.875;100.0
15558;BME280;7880;50.110;9.372;2023-05-23T09:36:20;15.272628183016787;;;15.125;100.0
15558;BME280;7880;50.110;9.372;2023-05-23T09:41:29;14.959989018231862;;;15.0;100.0
15558;BME280;7880;50.110;9.372;2023-05-23T09:46:28;14.722989106550813;;;14.75;100.0
15558;BME280;7880;50.110;9.372;2023-05-23T09:51:33;14.904520896170288;;;14.812;100.0
15558;BME280;7880;50.110;9.372;2023-05-23T09:56:45;14.859137913404265;;;14.812;100.0
15558;BME280;7880;50.110;9.372;2023-05-23T10:01:43;15.18186185863451;;;15.125;100.0
15558;BME280;7880;50.110;9.372;2023-05-23T10:07:01;15.111265893751987;;;15.125;100.0
15558;BME280;7880;50.110;9.372;2023-05-23T10:12:38;15.156649007485248;;;15.062;100.0
15558;BME280;7880;50.110;9.372;2023-05-23T10:17:26;15.156649007485248;;;15.062;100.0
15558;BME280;7880;50.110;9.372;2023-05-23T10:22:25;15.086053062975406;;;15.0;100.0
15558;BME280;7880;50.110;9.372;2023-05-23T10:27:33;15.091095628548647;;;15.0;100.0
15558;BME280;7880;50.110;9.372;2023-05-23T10:32:32;14.949903902510414;;;14.937;100.0
15558;BME280;7880;50.110;9.372;2023-05-23T10:37:38;14.914606006653049;;;14.875;100.0
15558;BME280;7880;50.110;9.372;2023-05-23T10:42:47;15.081010497693205;;;15.0;100.0
15558;BME280;7880;50.110;9.372;2023-05-23T10:47:46;14.934776231111027;;;14.937;100.0
15558;BME280;7880;50.110;9.372;2023-05-23T10:52:52;14.71794656222337;;;14.687;100.0
15558;BME280;7880;50.110;9.372;2023-05-23T10:58:08;14.682648760080337;;;14.687;100.0
15558;BME280;7880;50.110;9.372;2023-05-23T11:02:59;14.6776062180812;;;14.687;100.0
15558;BME280;7880;50.110;9.372;2023-05-23T11:08:08;14.889393232628937;;;14.75;100.0
15558;BME280;7880;50.110;9.372;2023-05-23T11:13:05;14.758286924991989;;;14.75;100.0
15558;BME280;7880;50.110;9.372;2023-05-23T11:18:20;14.949903902510414;;;14.875;100.0
15558;BME280;7880;50.110;9.372;2023-05-23T11:23:38;14.798627306387061;;;14.812;100.0
15558;BME280;7880;50.110;9.372;2023-05-23T11:27:51;14.76332947164774;;;14.75;100.0
15558;BME280;7880;50.110;9.372;2023-05-23T11:32:57;14.818797504069517;;;14.75;100.0
15558;BME280;7880;50.110;9.372;2023-05-23T11:38:03;14.76332947164774;;;14.75;100.0
15558;BME280;7880;50.110;9.372;2023-05-23T11:43:03;14.682648760080337;;;14.687;100.0
15558;BME280;7880;50.110;9.372;2023-05-23T11:48:08;14.637265892565484;;;14.625;100.0
15558;BME280;7880;50.110;9.372;2023-05-23T11:53:19;14.546500228258083;;;14.562;100.0
15558;BME280;7880;50.110;9.372;2023-05-23T11:58:16;14.71794656222337;;;14.625;100.0
15558;BME280;7880;50.110;9.372;2023-05-23T12:03:23;14.571712903329171;;;14.562;100.0
15558;BME280;7880;50.110;9.372;2023-05-23T12:08:35;14.475904776767129;;;14.437;100.0
15558;BME280;7880;50.110;9.372;2023-05-23T12:13:30;14.607010660652303;;;14.562;100.0
15558;BME280;7880;50.110;9.372;2023-05-23T12:18:37;14.551542762690223;;;14.5;100.0
15558;BME280;7880;50.110;9.372;2023-05-23T12:23:38;14.536415160266916;;;14.5;100.0
15558;BME280;7880;50.110;9.372;2023-05-23T12:29:12;14.707861474441597;;;14.625;100.0
15558;BME280;7880;50.110;9.372;2023-05-23T12:33:59;14.622138275299221;;;14.625;100.0
15558;BME280;7880;50.110;9.372;2023-05-23T12:39:11;14.728031651169294;;;14.625;100.0
15558;BME280;7880;50.110;9.372;2023-05-23T12:44:02;14.813754954212346;;;14.687;100.0
15558;BME280;7880;50.110;9.372;2023-05-23T12:49:06;14.687691302370514;;;14.687;100.0
15558;BME280;7880;50.110;9.372;2023-05-23T12:54:27;14.601968123018741;;;14.562;100.0
15558;BME280;7880;50.110;9.372;2023-05-23T12:59:14;14.647350972198183;;;14.625;100.0
15558;BME280;7880;50.110;9.372;2023-05-23T13:04:19;14.71794656222337;;;14.687;100.0
15558;BME280;7880;50.110;9.372;2023-05-23T13:09:23;14.849052809324348;;;14.75;100.0
15558;BME280;7880;50.110;9.372;2023-05-23T13:14:27;14.854095361218787;;;14.812;100.0
15558;BME280;7880;50.110;9.372;2023-05-23T13:19:36;14.753244378627278;;;14.75;100.0
15558;BME280;7880;50.110;9.372;2023-05-23T13:24:43;14.768372018594528;;;14.687;100.0
15558;BME280;7880;50.110;9.372;2023-05-23T13:29:44;14.647350972198183;;;14.625;100.0
15558;BME280;7880;50.110;9.372;2023-05-23T13:34:48;14.642308432236314;;;14.562;100.0
15558;BME280;7880;50.110;9.372;2023-05-23T13:40:01;14.647350972198183;;;14.562;100.0
15558;BME280;7880;50.110;9.372;2023-05-23T13:44:59;14.526330093439901;;;14.5;100.0
15558;BME280;7880;50.110;9.372;2023-05-23T13:50:04;14.596925585676217;;;14.562;100.0
15558;BME280;7880;50.110;9.372;2023-05-23T13:55:10;14.813754954212346;;;14.75;100.0
15558;BME280;7880;50.110;9.372;2023-05-23T14:00:14;14.869223018648336;;;14.75;100.0
15558;BME280;7880;50.110;9.372;2023-05-23T14:05:22;14.884350678697228;;;14.812;100.0
15558;BME280;7880;50.110;9.372;2023-05-23T14:10:24;14.672563676373102;;;14.625;100.0
15558;BME280;7880;50.110;9.372;2023-05-23T14:15:37;14.496074899943778;;;14.562;100.0
15558;BME280;7880;50.110;9.372;2023-05-23T14:20:37;14.571712903329171;;;14.5;100.0
15558;BME280;7880;50.110;9.372;2023-05-23T14:25:39;14.491032368713059;;;14.437;100.0
15558;BME280;7880;50.110;9.372;2023-05-23T14:30:46;14.304458917776355;;;14.25;100.0
15558;BME280;7880;50.110;9.372;2023-05-23T14:36:50;14.264118764555315;;;14.25;100.0
15558;BME280;7880;50.110;9.372;2023-05-23T14:41:54;14.32967152299825;;;14.25;100.0
15558;BME280;7880;50.110;9.372;2023-05-23T14:47:00;14.309501438238659;;;14.312;100.0
15558;BME280;7880;50.110;9.372;2023-05-23T14:52:04;14.410351908602753;;;14.312;100.0
15558;BME280;7880;50.110;9.372;2023-05-23T14:57:10;14.243948694929713;;;14.25;100.0
15558;BME280;7880;50.110;9.372;2023-05-23T15:02:16;14.203608569648349;;;14.125;100.0
15558;BME280;7880;50.110;9.372;2023-05-23T15:07:20;14.138055905792863;;;14.062;100.0
15558;BME280;7880;50.110;9.372;2023-05-23T15:12:27;14.112843355868245;;;14.062;100.0
15558;BME280;7880;50.110;9.372;2023-05-23T15:17:32;13.961568209115649;;;14.0;100.0
15558;BME280;7880;50.110;9.372;2023-05-23T15:22:35;14.006950725638308;;;13.937;100.0
15558;BME280;7880;50.110;9.372;2023-05-23T15:27:47;14.02207823638455;;;14.0;100.0
15558;BME280;7880;50.110;9.372;2023-05-23T15:32:46;13.845590773993171;;;13.812;100.0
15558;BME280;7880;50.110;9.372;2023-05-23T15:37:51;13.971653210750082;;;13.875;100.0
15558;BME280;7880;50.110;9.372;2023-05-23T15:42:56;13.880888237949694;;;13.875;100.0
15558;BME280;7880;50.110;9.372;2023-05-23T15:48:00;13.98173821354867;;;13.937;100.0
15558;BME280;7880;50.110;9.372;2023-05-23T15:53:04;13.815335816238075;;;13.812;100.0
15558;BME280;7880;50.110;9.372;2023-05-23T15:58:09;14.01199322892935;;;13.937;100.0
15558;BME280;7880;50.110;9.372;2023-05-23T16:03:17;13.815335816238075;;;13.812;100.0
15558;BME280;7880;50.110;9.372;2023-05-23T16:08:24;13.860718256799737;;;13.812;100.0
15558;BME280;7880;50.110;9.372;2023-05-23T16:13:28;13.880888237949694;;;13.812;100.0
15558;BME280;7880;50.110;9.372;2023-05-23T16:18:30;13.880888237949694;;;13.875;100.0
15558;BME280;7880;50.110;9.372;2023-05-23T16:24:01;13.911143218405778;;;13.937;100.0
15558;BME280;7880;50.110;9.372;2023-05-23T16:28:42;13.875845742225646;;;13.875;100.0
15558;BME280;7880;50.110;9.372;2023-05-23T16:33:46;14.062418277846882;;;14.0;100.0
15558;BME280;7880;50.110;9.372;2023-05-23T16:38:53;13.764910909929313;;;13.875;100.0
15558;BME280;7880;50.110;9.372;2023-05-23T16:43:55;13.71448603272438;;;13.687;100.0
15558;BME280;7880;50.110;9.372;2023-05-23T16:49:00;13.71448603272438;;;13.687;100.0
15558;BME280;7880;50.110;9.372;2023-05-23T16:54:05;13.64389125353191;;;13.625;100.0
15558;BME280;7880;50.110;9.372;2023-05-23T16:59:18;13.78003837876604;;;13.687;100.0
15558;BME280;7880;50.110;9.372;2023-05-23T17:04:15;13.860718256799737;;;13.75;100.0
15558;BME280;7880;50.110;9.372;2023-05-23T17:09:21;14.062418277846882;;;14.0;100.0
15558;BME280;7880;50.110;9.372;2023-05-23T17:14:24;14.072503291122848;;;14.0;100.0
15558;BME280;7880;50.110;9.372;2023-05-23T17:19:29;13.901058223756262;;;13.937;100.0
15558;BME280;7880;50.110;9.372;2023-05-23T17:24:47;13.583381488197483;;;13.625;100.0
15558;BME280;7880;50.110;9.372;2023-05-23T17:29:37;13.870803246792638;;;13.75;100.0
15558;BME280;7880;50.110;9.372;2023-05-23T17:34:46;13.890973230270902;;;13.875;100.0
15558;BME280;7880;50.110;9.372;2023-05-23T17:39:50;13.805250832648017;;;13.75;100.0
15558;BME280;7880;50.110;9.372;2023-05-23T17:44:52;13.75482593216002;;;13.75;100.0
15558;BME280;7880;50.110;9.372;2023-05-23T17:49:58;13.104347325168783;;;13.187;100.0
15558;BME280;7880;50.110;9.372;2023-05-23T17:55:04;12.988371028006076;;;13.0;100.0
15558;BME280;7880;50.110;9.372;2023-05-23T18:00:10;13.003498362383107;;;12.937;100.0
15558;BME280;7880;50.110;9.372;2023-05-23T18:05:15;12.660612759698415;;;12.75;100.0
15558;BME280;7880;50.110;9.372;2023-05-23T18:10:23;12.569849148957292;;;12.562;100.0
15558;BME280;7880;50.110;9.372;2023-05-23T18:15:29;12.549679470487172;;;12.5;100.0
15558;BME280;7880;50.110;9.372;2023-05-23T18:20:33;12.453873561345972;;;12.437;100.0
15558;BME280;7880;50.110;9.372;2023-05-23T18:25:41;12.484128047619015;;;12.375;100.0
15558;BME280;7880;50.110;9.372;2023-05-23T18:30:44;12.186626054305815;;;12.187;100.0
15558;BME280;7880;50.110;9.372;2023-05-23T18:35:51;12.110990115837193;;;12.062;100.0
15558;BME280;7880;50.110;9.372;2023-05-23T18:40:57;12.257219655957305;;;12.187;100.0
15558;BME280;7880;50.110;9.372;2023-05-23T18:46:04;12.176541258726502;;;12.187;100.0
15558;BME280;7880;50.110;9.372;2023-05-23T18:51:11;12.010142299742437;;;12.0;100.0
15558;BME280;7880;50.110;9.372;2023-05-23T18:56:14;11.934506514068925;;;11.937;100.0
15558;BME280;7880;50.110;9.372;2023-05-23T19:01:24;11.914336982282112;;;11.812;100.0
15558;BME280;7880;50.110;9.372;2023-05-23T19:06:27;11.924421747593442;;;11.812;100.0
15558;BME280;7880;50.110;9.372;2023-05-23T19:11:32;12.116032509697835;;;12.0;100.0
15558;BME280;7880;50.110;9.372;2023-05-23T19:16:39;12.156371671060333;;;12.0;100.0
15558;BME280;7880;50.110;9.372;2023-05-23T19:21:43;11.934506514068925;;;11.875;100.0
15558;BME280;7880;50.110;9.372;2023-05-23T19:26:53;11.989972750493326;;;11.875;100.0
15558;BME280;7880;50.110;9.372;2023-05-23T19:31:56;11.732811405748361;;;11.75;100.0
15558;BME280;7880;50.110;9.372;2023-05-23T19:37:00;11.621879294660175;;;11.562;100.0
15558;BME280;7880;50.110;9.372;2023-05-23T19:42:06;11.6269216602901;;;11.562;100.0
15558;BME280;7880;50.110;9.372;2023-05-23T19:47:11;11.3748037353158;;;11.375;100.0
15558;BME280;7880;50.110;9.372;2023-05-23T19:52:21;10.926035629078978;;;10.937;100.0
15558;BME280;7880;50.110;9.372;2023-05-23T19:57:20;10.578115874738433;;;10.5;100.0
15558;BME280;7880;50.110;9.372;2023-05-23T20:02:26;10.673919726820895;;;10.625;100.0
15558;BME280;7880;50.110;9.372;2023-05-23T20:07:32;10.870570068154484;;;10.75;100.0
15558;BME280;7880;50.110;9.372;2023-05-23T20:12:39;10.487354427576065;;;10.5;100.0
15558;BME280;7880;50.110;9.372;2023-05-23T20:17:50;10.028506332548568;;;10.125;100.0
15558;BME280;7880;50.110;9.372;2023-05-23T20:22:52;10.109182746062288;;;9.937;100.0
15558;BME280;7880;50.110;9.372;2023-05-23T20:27:57;10.472227528883376;;;10.25;100.0
15558;BME280;7880;50.110;9.372;2023-05-23T20:33:03;10.341127849934855;;;10.187;100.0
15558;BME280;7880;50.110;9.372;2023-05-23T20:38:06;10.220112936297664;;;10.0;100.0
15558;BME280;7880;50.110;9.372;2023-05-23T20:43:14;10.164647823572158;;;10.0;100.0
15558;BME280;7880;50.110;9.372;2023-05-23T20:48:21;10.12935186108225;;;10.062;100.0
15558;BME280;7880;50.110;9.372;2023-05-23T20:53:24;9.82681562472717;;;9.812;100.0
15558;BME280;7880;50.110;9.372;2023-05-23T20:58:33;9.937745456403354;;;9.812;100.0
15558;BME280;7880;50.110;9.372;2023-05-23T21:03:33;9.988168153731385;;;9.812;100.0
15558;BME280;7880;50.110;9.372;2023-05-23T21:08:37;9.887322788179153;;;9.75;100.0
15558;BME280;7880;50.110;9.372;2023-05-23T21:13:49;9.957914531842107;;;9.875;100.0
15558;BME280;7880;50.110;9.372;2023-05-23T21:18:46;9.967999071307712;;;9.812;100.0
15558;BME280;7880;50.110;9.372;2023-05-23T21:23:55;9.988168153731385;;;9.875;100.0
15558;BME280;7880;50.110;9.372;2023-05-23T21:28:58;9.978083611937473;;;9.937;100.0
15558;BME280;7880;50.110;9.372;2023-05-23T21:34:03;9.998252696689452;;;9.937;100.0
15558;BME280;7880;50.110;9.372;2023-05-23T21:38:36;10.04867542894208;;;10.0;100.0
15558;BME280;7880;50.110;9.372;2023-05-23T21:43:39;10.245324362814426;;;10.125;100.0
15558;BME280;7880;50.110;9.372;2023-05-23T21:48:39;10.275578084238806;;;10.125;100.0
15558;BME280;7880;50.110;9.372;2023-05-23T21:53:43;10.376423897990026;;;10.312;100.0
15558;BME280;7880;50.110;9.372;2023-05-23T21:58:48;10.144478700403123;;;10.125;100.0
15558;BME280;7880;50.110;9.372;2023-05-23T22:03:55;10.421804552158573;;;10.312;100.0
15558;BME280;7880;50.110;9.372;2023-05-23T22:09:00;10.447016036882996;;;10.375;100.0
15558;BME280;7880;50.110;9.372;2023-05-23T22:14:09;10.240282076928997;;;10.25;100.0
15558;BME280;7880;50.110;9.372;2023-05-23T22:19:19;10.38146619173349;;;10.25;100.0
15558;BME280;7880;50.110;9.372;2023-05-23T22:24:19;10.512565931217978;;;10.375;100.0
15558;BME280;7880;50.110;9.372;2023-05-23T22:29:22;10.49239672772237;;;10.437;100.0
15558;BME280;7880;50.110;9.372;2023-05-23T22:34:26;10.250366648990894;;;10.25;100.0
15558;BME280;7880;50.110;9.372;2023-05-23T22:39:32;10.169690105092013;;;10.25;100.0
15558;BME280;7880;50.110;9.372;2023-05-23T22:44:38;10.204986083880067;;;10.187;100.0
15558;BME280;7880;50.110;9.372;2023-05-23T22:49:46;10.431889145175228;;;10.375;100.0
15558;BME280;7880;50.110;9.372;2023-05-23T22:54:51;10.502481328888098;;;10.437;100.0
15558;BME280;7880;50.110;9.372;2023-05-23T22:59:57;10.250366648990894;;;10.312;100.0
15558;BME280;7880;50.110;9.372;2023-05-23T23:05:03;10.38146619173349;;;10.312;100.0
15558;BME280;7880;50.110;9.372;2023-05-23T23:10:11;10.174732386902907;;;10.187;100.0
15558;BME280;7880;50.110;9.372;2023-05-23T23:15:17;10.19490151705686;;;10.187;100.0
15558;BME280;7880;50.110;9.372;2023-05-23T23:20:24;10.043633154407143;;;10.0;100.0
15558;BME280;7880;50.110;9.372;2023-05-23T23:25:31;9.978083611937473;;;10.0;100.0
15558;BME280;7880;50.110;9.372;2023-05-23T23:30:36;9.76126624494791;;;9.812;100.0
15558;BME280;7880;50.110;9.372;2023-05-23T23:35:47;9.801604318991304;;;9.687;100.0
15558;BME280;7880;50.110;9.372;2023-05-23T23:40:47;9.625125382567058;;;9.687;100.0
15558;BME280;7880;50.110;9.372;2023-05-23T23:45:55;9.58478739001439;;;9.5;100.0
15558;BME280;7880;50.110;9.372;2023-05-23T23:51:08;9.433520083833718;;;9.437;100.0
15558;BME280;7880;50.110;9.372;2023-05-23T23:56:05;9.473858006537194;;;9.437;100.0
